KNQX/NQX METAR and TAF weather

Enter ICAO airport designator
Station Type Date Time Source
KNQX METAR 2022/01/29 01:53 UTC NOAA

KNQX 290153Z 31009KT 10SM FEW020 BKN085 OVC100 23/17 A3001 RMK AO2 SLP161 T02330167 $


Station Type Date Time Source
KNQX Decoded METAR 2022/01/29 01:53 UTC NOAA

KEY WEST NAVAL AIR STATION, FL, United States (KNQX) 24-35N 81-41W 6M
Jan 28, 2022 - 08:53 PM EST / 2022.01.29 0153 UTC
Wind: from the NW (310 degrees) at 10 MPH (9 KT):0
Visibility: 10 mile(s):0
Sky conditions: overcast
Temperature: 73.9 F (23.3 C)
Dew Point: 62.1 F (16.7 C)
Relative Humidity: 66%
Pressure (altimeter): 30.01 in. Hg (1016 hPa)
ob: KNQX 290153Z 31009KT 10SM FEW020 BKN085 OVC100 23/17 A3001 RMK AO2 SLP161 T02330167
cycle: 2

Station Type Date Time Source
KNQX TAF 2022/01/28 23:07 UTC NOAA

TAF KNQX 2823/2923 31011KT 9999 FEW020 SCT150 BKN250 QNH2995INS
FM290200 33015G25KT 9999 VCSH BKN020 OVC120 520005 QNH2998INS
TEMPO 2902/2906 4800 SHRA BKN020
FM290700 35022G32KT 9999 BKN025 OVC040 540005 QNH3003INS AUTOMATED SENSOR METWATCH 2903 TIL 2911 T23/2823Z T18/2911Z FN20073

Example: see airport list